createdAt,value
2022-12-20T03:31:09.277Z,25.73
2022-12-20T03:36:06.672Z,25.52
2022-12-20T03:38:35.171Z,24.45
2022-12-20T03:41:03.824Z,24.58
2022-12-20T03:43:32.435Z,26.70
2022-12-20T03:46:01.231Z,24.92
2022-12-20T03:48:31.648Z,24.27
2022-12-20T03:51:02.671Z,25.25
2022-12-20T03:53:31.222Z,26.55
2022-12-20T03:56:00.742Z,25.15
2022-12-20T03:58:29.361Z,26.30
2022-12-20T04:00:58.545Z,25.10
2022-12-20T04:03:27.175Z,26.40
2022-12-20T04:05:57.389Z,25.20
2022-12-20T04:08:26.468Z,26.70
2022-12-20T04:11:08.824Z,24.40
2022-12-20T04:13:37.325Z,24.83
2022-12-20T04:16:06.216Z,24.58
2022-12-20T04:18:34.722Z,26.02
2022-12-20T04:21:04.724Z,25.75
2022-12-20T04:23:33.291Z,26.08
2022-12-20T04:26:02.057Z,24.20
2022-12-20T04:28:30.686Z,26.85
2022-12-20T04:30:59.576Z,25.40
2022-12-20T04:33:28.949Z,25.90
2022-12-20T04:35:57.674Z,26.02
2022-12-20T04:38:27.956Z,24.95
2022-12-20T04:40:57.351Z,23.92
2022-12-20T04:43:26.274Z,25.52
2022-12-20T04:45:56.384Z,24.02
2022-12-20T04:51:15.938Z,25.75
2022-12-20T04:53:48.164Z,26.15
2022-12-20T04:56:21.261Z,25.83
2022-12-20T04:58:51.079Z,17.80
2022-12-20T05:01:22.164Z,23.60
2022-12-20T05:03:51.238Z,24.60
2022-12-20T05:06:20.613Z,23.58
2022-12-20T05:09:29.466Z,23.42
2022-12-20T05:12:39.240Z,24.38
2022-12-20T05:18:15.703Z,23.48
2022-12-20T05:21:11.985Z,24.75
2022-12-20T05:27:29.823Z,25.48
2022-12-20T05:29:58.297Z,24.30
2022-12-20T05:32:28.391Z,25.35
2022-12-20T05:34:57.266Z,25.63
2022-12-20T05:37:26.376Z,24.73
2022-12-20T05:39:58.496Z,24.38
2022-12-20T05:42:30.238Z,25.92
2022-12-20T05:45:00.996Z,24.83
2022-12-20T05:47:34.075Z,25.58
2022-12-20T05:50:02.641Z,29.75
2022-12-20T05:52:31.412Z,28.83
2022-12-20T05:55:00.046Z,27.85
2022-12-20T05:57:30.061Z,28.63
2022-12-20T05:59:58.699Z,24.60
2022-12-20T06:02:27.196Z,39.72
2022-12-20T06:04:58.317Z,37.42
2022-12-20T06:07:28.995Z,31.83
2022-12-20T06:09:57.483Z,25.73
2022-12-20T06:12:26.680Z,38.72
2022-12-20T06:14:55.746Z,25.55
2022-12-20T06:17:24.282Z,26.33
2022-12-20T06:19:52.777Z,41.45
2022-12-20T06:22:23.063Z,30.00
2022-12-20T06:24:51.448Z,28.50
2022-12-20T06:27:21.660Z,24.83
2022-12-20T06:29:54.496Z,24.20
2022-12-20T06:32:23.476Z,23.80
2022-12-20T06:34:52.640Z,23.92
2022-12-20T06:37:22.401Z,23.90
2022-12-20T06:39:50.870Z,23.20
2022-12-20T06:42:19.309Z,23.77
2022-12-20T06:44:47.827Z,22.42
2022-12-20T06:47:16.273Z,24.58
2022-12-20T06:49:44.663Z,24.38
2022-12-20T06:52:13.109Z,24.27
2022-12-20T06:54:43.007Z,30.00
2022-12-20T06:57:11.415Z,26.55
2022-12-20T06:59:39.831Z,24.60
2022-12-20T07:02:09.259Z,26.63
2022-12-20T07:04:37.867Z,27.02
2022-12-20T07:07:06.754Z,28.17
2022-12-20T07:09:35.463Z,27.08
2022-12-20T07:12:05.461Z,26.48
2022-12-20T07:14:34.024Z,27.67
2022-12-20T07:17:02.586Z,25.77
2022-12-20T07:19:31.091Z,25.98
2022-12-20T07:21:59.501Z,27.10
2022-12-20T07:24:27.890Z,24.55
2022-12-20T07:26:56.286Z,24.75
2022-12-20T07:29:26.752Z,44.17
2022-12-20T07:31:55.195Z,29.73
2022-12-20T07:34:23.966Z,33.28
2022-12-20T07:36:54.495Z,35.22
2022-12-20T07:39:22.852Z,33.95
2022-12-20T07:41:51.259Z,30.52
2022-12-20T07:44:19.694Z,26.60
2022-12-20T07:46:49.503Z,26.42
2022-12-20T07:49:18.000Z,41.95
2022-12-20T07:51:47.749Z,30.52
2022-12-20T07:54:17.550Z,27.38
2022-12-20T07:56:49.236Z,30.13
2022-12-20T07:59:20.995Z,27.77
2022-12-20T08:01:51.165Z,26.38
2022-12-20T08:04:21.298Z,26.70
2022-12-20T08:06:50.282Z,24.08
2022-12-20T08:09:19.143Z,24.27
2022-12-20T08:11:48.974Z,24.50
2022-12-20T08:14:18.952Z,24.67
2022-12-20T08:16:47.601Z,24.58
2022-12-20T08:19:17.416Z,25.60
2022-12-20T08:21:46.246Z,32.03
2022-12-20T08:24:14.603Z,38.75
2022-12-20T08:26:43.506Z,32.45
2022-12-20T08:29:11.961Z,32.13
2022-12-20T08:31:45.881Z,30.55
2022-12-20T08:34:17.797Z,31.83
2022-12-20T08:36:47.485Z,28.10
2022-12-20T08:39:16.215Z,27.13
2022-12-20T08:41:44.594Z,25.63
2022-12-20T08:44:13.242Z,27.50
2022-12-20T08:46:41.691Z,26.13
2022-12-20T08:49:10.153Z,25.70
2022-12-20T08:51:40.130Z,27.67
2022-12-20T08:54:08.719Z,26.08
2022-12-20T08:56:37.179Z,27.23
2022-12-20T08:59:05.907Z,26.80
2022-12-20T09:01:34.744Z,26.55
2022-12-20T09:04:03.548Z,25.92
2022-12-20T09:06:32.309Z,26.88
2022-12-20T09:09:02.422Z,25.65
2022-12-20T09:11:30.880Z,27.17
2022-12-20T09:13:59.903Z,28.95
2022-12-20T09:16:28.919Z,30.33
2022-12-20T09:19:04.678Z,28.85
2022-12-20T09:21:34.480Z,28.30
2022-12-20T09:24:04.287Z,29.27
2022-12-20T09:26:32.734Z,28.40
2022-12-20T09:29:02.120Z,29.80
2022-12-20T09:31:30.922Z,27.88
2022-12-20T09:33:59.953Z,28.08
2022-12-20T09:36:29.485Z,27.95
2022-12-20T09:38:58.391Z,29.13
2022-12-20T09:41:30.790Z,29.52
2022-12-20T09:43:59.650Z,29.42
2022-12-20T09:46:28.646Z,27.75
2022-12-20T09:48:58.388Z,27.75
2022-12-20T09:51:45.214Z,29.13
2022-12-20T09:54:17.606Z,27.85
2022-12-20T09:56:49.251Z,26.85
2022-12-20T09:59:20.091Z,29.48
2022-12-20T10:01:50.133Z,29.10
2022-12-20T10:04:23.278Z,26.88
2022-12-20T10:06:57.421Z,20.58
2022-12-20T10:09:33.677Z,26.80
2022-12-20T10:12:09.512Z,26.10
2022-12-20T10:14:52.307Z,24.90
2022-12-20T10:17:32.417Z,26.50
2022-12-20T10:20:19.043Z,28.52
2022-12-20T10:22:50.933Z,26.80
2022-12-20T10:25:20.750Z,25.75
2022-12-20T10:27:52.058Z,25.80
2022-12-20T10:30:22.241Z,26.35
2022-12-20T10:32:52.112Z,23.45
2022-12-20T10:35:25.123Z,25.08
2022-12-20T10:38:14.048Z,24.15
2022-12-20T10:41:19.366Z,24.65
2022-12-20T10:43:40.876Z,24.80
2022-12-20T10:46:10.016Z,24.38
2022-12-20T10:48:39.369Z,25.55
2022-12-20T10:51:16.928Z,24.85
2022-12-20T10:54:01.139Z,26.88
2022-12-20T10:56:30.086Z,26.80
2022-12-20T10:59:01.515Z,26.55
2022-12-20T11:01:31.691Z,26.00
2022-12-20T11:04:01.826Z,26.55
2022-12-20T11:06:32.340Z,27.63
2022-12-20T11:09:15.471Z,26.52
2022-12-20T11:11:59.130Z,25.63
2022-12-20T11:14:34.597Z,24.35
2022-12-20T11:17:09.142Z,24.08
2022-12-20T11:19:51.471Z,24.55
2022-12-20T11:22:26.722Z,24.20
2022-12-20T11:25:00.075Z,23.95
2022-12-20T11:27:34.345Z,24.58
2022-12-20T11:30:11.057Z,24.73
2022-12-20T11:32:55.200Z,23.80
2022-12-20T11:37:54.822Z,22.63
2022-12-20T11:40:29.606Z,23.65
2022-12-20T11:43:06.787Z,27.58
2022-12-20T11:45:42.669Z,24.35
2022-12-20T11:48:23.546Z,26.23
2022-12-20T11:50:59.069Z,24.75
2022-12-20T11:53:30.281Z,24.90
2022-12-20T11:56:01.877Z,25.02
2022-12-20T11:58:33.399Z,23.60
2022-12-20T12:01:06.511Z,23.17
2022-12-20T12:03:36.767Z,45.30
2022-12-20T12:06:07.450Z,39.53
2022-12-20T12:08:42.137Z,32.58
2022-12-20T12:11:39.806Z,32.63
2022-12-20T12:14:04.822Z,28.60
2022-12-20T12:16:38.226Z,31.08
2022-12-20T12:19:10.799Z,39.90
2022-12-20T12:21:40.922Z,42.75
2022-12-20T12:24:12.012Z,30.58
2022-12-20T12:26:41.480Z,29.42
2022-12-20T12:29:14.394Z,26.30
2022-12-20T12:31:48.133Z,25.87
2022-12-20T12:37:03.098Z,24.35
2022-12-20T12:39:46.670Z,24.85
2022-12-20T12:42:42.200Z,25.63
2022-12-20T12:45:16.655Z,27.48
2022-12-20T12:47:50.380Z,25.65
2022-12-20T12:50:26.643Z,25.15
2022-12-20T12:52:56.552Z,27.55
2022-12-20T12:55:38.376Z,25.98
2022-12-20T12:58:17.098Z,25.55
2022-12-20T13:00:53.086Z,25.30
2022-12-20T13:03:37.436Z,24.42
2022-12-20T13:06:20.980Z,24.20
2022-12-20T13:08:52.465Z,25.92
2022-12-20T13:11:31.552Z,24.58
2022-12-20T13:14:14.147Z,22.48
2022-12-20T13:17:10.615Z,30.48
2022-12-20T13:19:34.568Z,24.92
2022-12-20T13:22:16.778Z,23.80
2022-12-20T13:24:55.175Z,25.30
2022-12-20T13:27:29.238Z,24.38
2022-12-20T13:30:00.287Z,26.23
2022-12-20T13:32:47.457Z,24.65
2022-12-20T13:35:30.956Z,27.63
2022-12-20T13:38:02.249Z,27.10
2022-12-20T13:40:37.247Z,34.35
2022-12-20T13:43:09.749Z,30.15
2022-12-20T13:45:40.296Z,51.38
2022-12-20T13:48:11.718Z,36.80
2022-12-20T13:50:41.927Z,30.98
2022-12-20T13:53:18.446Z,28.40
2022-12-20T13:55:49.768Z,27.38
2022-12-20T13:58:19.689Z,30.10
2022-12-20T14:00:49.107Z,27.42
2022-12-20T14:03:25.833Z,32.88
2022-12-20T14:05:58.652Z,31.40
2022-12-20T14:08:29.955Z,30.60
2022-12-20T14:11:27.286Z,33.70
2022-12-20T14:13:57.063Z,26.95
2022-12-20T14:16:43.771Z,27.17
2022-12-20T14:19:17.491Z,26.27
2022-12-20T14:22:04.569Z,25.48
2022-12-20T14:24:40.097Z,25.30
2022-12-20T14:27:14.336Z,23.30
2022-12-20T14:29:45.256Z,25.23
2022-12-20T14:32:34.403Z,24.70
2022-12-20T14:35:07.010Z,24.58
2022-12-20T14:37:42.703Z,25.42
2022-12-20T14:40:21.585Z,25.13
2022-12-20T14:42:53.465Z,27.17
2022-12-20T14:45:24.400Z,25.52
2022-12-20T14:47:56.663Z,26.90
2022-12-20T14:50:29.005Z,28.80
2022-12-20T14:52:58.729Z,35.53
2022-12-20T14:55:29.469Z,28.40
2022-12-20T14:58:03.272Z,38.10
2022-12-20T15:00:33.031Z,40.75
2022-12-20T15:03:13.451Z,34.75
2022-12-20T15:05:55.414Z,30.48
2022-12-20T15:08:40.679Z,28.95
2022-12-20T15:11:22.556Z,25.40
2022-12-20T15:14:04.940Z,24.58
2022-12-20T15:16:38.413Z,25.52
2022-12-20T15:19:30.276Z,25.83
2022-12-20T15:22:13.290Z,22.83
2022-12-20T15:24:47.277Z,25.30
2022-12-20T15:31:33.704Z,23.65
2022-12-20T15:34:23.415Z,22.15
2022-12-20T15:37:31.355Z,24.33
2022-12-20T15:43:23.641Z,22.52
2022-12-20T15:46:14.569Z,22.77
2022-12-20T15:49:01.486Z,22.88
2022-12-20T15:51:48.258Z,23.30
2022-12-20T15:54:32.987Z,25.20
2022-12-20T15:57:03.496Z,27.65
2022-12-20T15:59:58.915Z,37.60
2022-12-20T16:02:25.472Z,27.25
2022-12-20T16:04:57.095Z,28.58
2022-12-20T16:07:26.740Z,29.38
2022-12-20T16:10:19.964Z,29.48
2022-12-20T16:12:52.900Z,30.13
2022-12-20T16:15:32.981Z,27.43
2022-12-20T16:18:04.883Z,29.23
2022-12-20T16:20:39.447Z,29.63
2022-12-20T16:23:09.111Z,33.25
2022-12-20T16:25:54.969Z,40.15
2022-12-20T16:28:30.931Z,36.53
2022-12-20T16:31:25.190Z,36.60
2022-12-20T16:34:14.024Z,33.00
2022-12-20T16:36:59.627Z,30.27
2022-12-20T16:39:41.372Z,31.92
2022-12-20T16:42:15.057Z,30.85
2022-12-20T16:44:49.747Z,25.83
2022-12-20T16:47:20.687Z,29.08
2022-12-20T16:49:54.384Z,26.55
2022-12-20T16:52:23.782Z,25.13
2022-12-20T16:55:12.266Z,26.10
2022-12-20T16:57:49.832Z,25.67
2022-12-20T17:00:55.780Z,27.33
2022-12-20T17:03:27.567Z,32.35
2022-12-20T17:06:11.119Z,44.92
2022-12-20T17:12:09.210Z,29.42
2022-12-20T17:17:57.490Z,28.08
2022-12-20T17:21:01.848Z,25.15
2022-12-20T17:26:45.373Z,28.95
2022-12-20T17:29:57.862Z,28.23
2022-12-20T17:33:02.340Z,28.63
2022-12-20T17:35:44.796Z,29.48
2022-12-20T17:38:32.341Z,28.88
2022-12-20T17:41:37.010Z,30.15
2022-12-20T17:46:52.342Z,29.80
2022-12-20T17:49:47.187Z,31.88
2022-12-20T17:52:52.324Z,32.17
2022-12-20T17:55:32.529Z,30.35
2022-12-20T17:58:21.096Z,30.23
2022-12-20T18:00:59.328Z,29.20
2022-12-20T18:04:03.311Z,30.75
2022-12-20T18:06:39.293Z,33.17
2022-12-20T18:09:24.086Z,31.25
2022-12-20T18:11:57.696Z,32.47
2022-12-20T18:14:51.080Z,31.02
2022-12-20T18:17:51.010Z,38.00
2022-12-20T18:20:43.997Z,35.50
2022-12-20T18:23:44.627Z,39.20
2022-12-20T18:26:35.957Z,56.47
2022-12-20T18:29:22.856Z,51.28
2022-12-20T18:32:37.317Z,51.55
2022-12-20T18:35:42.775Z,61.33
2022-12-20T18:38:39.213Z,58.17
2022-12-20T18:41:18.717Z,44.95
2022-12-20T18:44:07.546Z,47.33
2022-12-20T18:47:27.290Z,34.03
2022-12-20T18:50:13.023Z,36.00
2022-12-20T18:52:47.472Z,37.65
2022-12-20T18:55:45.432Z,38.45
2022-12-20T18:58:32.018Z,35.28
2022-12-20T19:01:19.933Z,37.13
2022-12-20T19:03:54.875Z,36.78
2022-12-20T19:07:01.830Z,36.30
2022-12-20T19:16:26.322Z,31.48
2022-12-20T19:19:20.817Z,23.57
2022-12-20T19:21:56.049Z,31.67
2022-12-20T19:24:33.616Z,32.28
2022-12-20T19:27:13.843Z,31.05
2022-12-20T19:29:51.298Z,27.52
2022-12-20T19:32:26.994Z,27.85
2022-12-20T19:37:46.966Z,26.83
2022-12-20T19:40:24.421Z,27.02
2022-12-20T19:42:55.343Z,27.25
2022-12-20T19:45:35.837Z,27.98
2022-12-20T19:48:10.623Z,26.40
2022-12-20T19:50:43.429Z,26.20
2022-12-20T19:53:12.245Z,26.17
2022-12-20T19:55:53.757Z,25.48
2022-12-20T19:58:25.972Z,25.67
2022-12-20T20:01:04.340Z,26.10
2022-12-20T20:03:34.223Z,25.15
2022-12-20T20:06:04.970Z,28.73
2022-12-20T20:08:40.039Z,28.08
2022-12-20T20:11:10.862Z,28.10
2022-12-20T20:13:50.341Z,29.23
2022-12-20T20:16:28.170Z,28.30
2022-12-20T20:19:12.858Z,26.67
2022-12-20T20:21:46.190Z,26.27
2022-12-20T20:24:18.412Z,27.73
2022-12-20T20:27:01.065Z,28.75
2022-12-20T20:29:34.783Z,28.10
2022-12-20T20:35:00.157Z,27.73
2022-12-20T20:37:57.526Z,27.48
2022-12-20T20:40:52.580Z,29.42
2022-12-20T20:43:40.138Z,29.35
2022-12-20T20:46:14.390Z,30.08
2022-12-20T20:49:02.652Z,29.25
2022-12-20T20:51:35.367Z,27.48
2022-12-20T20:54:14.977Z,29.88
2022-12-20T20:57:47.172Z,29.15
2022-12-20T21:00:52.147Z,30.45
2022-12-20T21:03:28.895Z,28.15
2022-12-20T21:09:09.439Z,31.27
2022-12-20T21:12:36.832Z,36.17
2022-12-20T21:15:20.787Z,36.80
2022-12-20T21:17:46.561Z,36.50
2022-12-20T21:20:31.272Z,36.08
2022-12-20T21:23:02.463Z,41.58
2022-12-20T21:25:32.093Z,40.28
2022-12-20T21:28:02.645Z,36.30
2022-12-20T21:30:41.278Z,32.28
2022-12-20T21:33:23.645Z,31.83
2022-12-20T21:36:01.369Z,30.70
2022-12-20T21:38:32.228Z,29.65
2022-12-20T21:41:01.828Z,25.88
2022-12-20T21:43:33.053Z,24.98
2022-12-20T21:46:09.322Z,23.33
2022-12-20T21:48:38.386Z,23.15
2022-12-20T21:51:10.331Z,24.38
2022-12-20T21:53:58.200Z,24.70
2022-12-20T21:56:42.289Z,24.95
2022-12-20T22:01:41.967Z,25.77
2022-12-20T22:04:14.093Z,23.90
2022-12-20T22:06:54.417Z,26.23
2022-12-20T22:09:26.555Z,26.48
2022-12-20T22:11:55.736Z,26.13
2022-12-20T22:14:24.907Z,27.83
2022-12-20T22:16:56.695Z,25.33
2022-12-20T22:19:26.695Z,27.05
2022-12-20T22:21:58.519Z,25.25
2022-12-20T22:24:27.789Z,27.05
2022-12-20T22:27:11.130Z,26.88
2022-12-20T22:29:40.301Z,27.00
2022-12-20T22:32:10.551Z,25.98
2022-12-20T22:34:39.366Z,25.20
2022-12-20T22:37:10.173Z,25.38
2022-12-20T22:39:38.976Z,26.77
2022-12-20T22:42:08.245Z,26.63
2022-12-20T22:44:37.136Z,26.58
2022-12-20T22:47:08.779Z,26.80
2022-12-20T22:49:41.003Z,26.17
2022-12-20T22:52:12.763Z,25.90
2022-12-20T22:54:41.638Z,25.65
2022-12-20T22:57:15.200Z,25.90
2022-12-20T22:59:46.865Z,28.13
2022-12-20T23:02:16.125Z,26.25
2022-12-20T23:04:48.016Z,26.08
2022-12-20T23:07:30.145Z,26.42
2022-12-20T23:10:00.711Z,27.90
2022-12-20T23:12:51.673Z,28.88
2022-12-20T23:15:38.168Z,25.75
2022-12-20T23:18:07.115Z,28.63
2022-12-20T23:20:53.160Z,29.40
2022-12-20T23:23:23.414Z,30.95
2022-12-20T23:25:54.493Z,31.92
2022-12-20T23:28:26.300Z,32.60
2022-12-20T23:30:55.123Z,32.65
2022-12-20T23:33:23.927Z,30.77
2022-12-20T23:35:58.286Z,30.95
2022-12-20T23:38:30.577Z,31.02
2022-12-20T23:40:59.301Z,30.55
2022-12-20T23:43:43.486Z,28.00
2022-12-20T23:48:44.001Z,26.75
2022-12-20T23:51:13.156Z,25.45
2022-12-20T23:53:43.463Z,26.05
2022-12-20T23:56:12.723Z,26.20
2022-12-20T23:58:45.193Z,24.55
